Observation data for Jayton on 06/16/2019      Previous  Date  Next       Current Mesonet Observations  Soil Data  Daily Summary Page  Observations in Plain Language
KJTS 160500Z 04006KT 19/16 A2983 RMK A01 T01900163  RH  089%=      5-min Rain = 0
KJTS 160505Z 04007KT 19/16 A2983 RMK A01 T01910163  RH  088%=      5-min Rain = 0
KJTS 160510Z 04007KT 19/16 A2983 RMK A01 T01910164  RH  089%=      5-min Rain = 0
KJTS 160515Z 03007KT 19/17 A2983 RMK A01 T01920165  RH  088%=      5-min Rain = 0
KJTS 160520Z 04006KT 19/17 A2983 RMK A01 T01930165  RH  088%=      5-min Rain = 0
KJTS 160525Z 04006KT 19/17 A2983 RMK A01 T01940165  RH  087%=      5-min Rain = 0
KJTS 160530Z 04006KT 20/17 A2983 RMK A01 T01960165  RH  086%=      5-min Rain = 0
KJTS 160535Z 03005KT 20/16 A2982 RMK A01 T01980164  RH  085%=      5-min Rain = 0
KJTS 160540Z 05004KT 20/17 A2982 RMK A01 T02000165  RH  084%=      5-min Rain = 0
KJTS 160545Z 05002KT 20/17 A2982 RMK A01 T01970167  RH  087%=      5-min Rain = 0
KJTS 160550Z 22001KT 20/17 A2982 RMK A01 T01960166  RH  087%=      5-min Rain = 0
KJTS 160555Z 24003KT 19/17 A2982 RMK A01 T01940167  RH  089%=      5-min Rain = 0
KJTS 160600Z 27003KT 19/17 A2982 RMK A01 T01910167  RH  090%=      5-min Rain = 0
KJTS 160605Z 02002KT 19/17 A2982 RMK A01 T01910167  RH  090%=      5-min Rain = 0
KJTS 160610Z 35002G8KT 19/17 A2982 RMK A01 T01910167  RH  090%=      5-min Rain = 0
KJTS 160615Z 35008KT 19/17 A2983 RMK A01 T01900168  RH  091%=      5-min Rain = 0
KJTS 160620Z 01007KT 19/17 A2984 RMK A01 T01890166  RH  090%=      5-min Rain = 0
KJTS 160625Z 01008G13KT 19/17 A2984 RMK A01 T01890166  RH  091%=      5-min Rain = 0
KJTS 160630Z 01010G16KT 19/17 A2986 RMK A01 T01890166  RH  091%=      5-min Rain = 0
KJTS 160635Z 02010G16KT 19/17 A2987 RMK A01 T01900165  RH  090%=      5-min Rain = 0
KJTS 160640Z 03010KT 19/16 A2987 RMK A01 T01890162  RH  088%=      5-min Rain = 0
KJTS 160645Z 03008G14KT 19/16 A2987 RMK A01 T01890162  RH  088%=      5-min Rain = 0
KJTS 160650Z 04010KT 19/16 A2987 RMK A01 T01880161  RH  088%=      5-min Rain = 0
KJTS 160655Z 03010G15KT 19/16 A2987 RMK A01 T01890158  RH  086%=      5-min Rain = 0
KJTS 160700Z 04009KT 19/16 A2987 RMK A01 T01900155  RH  084%=      5-min Rain = 0
KJTS 160705Z 03009KT 19/15 A2987 RMK A01 T01900154  RH  083%=      5-min Rain = 0
KJTS 160710Z 02009G14KT 19/15 A2988 RMK A01 T01900154  RH  083%=      5-min Rain = 0
KJTS 160715Z 02009KT 19/15 A2989 RMK A01 T01900154  RH  083%=      5-min Rain = 0
KJTS 160720Z 03007KT 19/15 A2989 RMK A01 T01910153  RH  082%=      5-min Rain = 0
KJTS 160725Z 03008KT 19/15 A2989 RMK A01 T01900152  RH  082%=      5-min Rain = 0
KJTS 160730Z 03007KT 19/15 A2988 RMK A01 T01900152  RH  082%=      5-min Rain = 0
KJTS 160735Z 02007G12KT 19/15 A2988 RMK A01 T01900153  RH  083%=      5-min Rain = 0
KJTS 160740Z 03008KT 19/15 A2988 RMK A01 T01890152  RH  083%=      5-min Rain = 0
KJTS 160745Z 03007KT 19/15 A2988 RMK A01 T01880152  RH  083%=      5-min Rain = 0
KJTS 160750Z 03008KT 19/15 A2988 RMK A01 T01920150  RH  080%=      5-min Rain = 0
KJTS 160755Z 02006KT 19/15 A2988 RMK A01 T01930150  RH  079%=      5-min Rain = 0
KJTS 160800Z 04005KT 19/15 A2988 RMK A01 T01900151  RH  082%=      5-min Rain = 0
KJTS 160805Z 06006KT 19/15 A2988 RMK A01 T01890150  RH  082%=      5-min Rain = 0
KJTS 160810Z 06005KT 19/15 A2988 RMK A01 T01890151  RH  082%=      5-min Rain = 0
KJTS 160815Z 05005KT 19/15 A2988 RMK A01 T01870151  RH  083%=      5-min Rain = 0
KJTS 160820Z 03006KT 19/15 A2988 RMK A01 T01900150  RH  081%=      5-min Rain = 0
KJTS 160825Z 03005KT 19/15 A2988 RMK A01 T01940148  RH  078%=      5-min Rain = 0
KJTS 160830Z 03004KT 20/15 A2987 RMK A01 T01960148  RH  077%=      5-min Rain = 0
KJTS 160835Z 05004KT 20/15 A2987 RMK A01 T01950149  RH  078%=      5-min Rain = 0
KJTS 160840Z 04003KT 19/15 A2987 RMK A01 T01920148  RH  079%=      5-min Rain = 0
KJTS 160845Z 05001KT 19/15 A2987 RMK A01 T01930148  RH  079%=      5-min Rain = 0
KJTS 160850Z 35001KT 19/15 A2987 RMK A01 T01920148  RH  079%=      5-min Rain = 0
KJTS 160855Z 36003KT 19/15 A2986 RMK A01 T01900148  RH  080%=      5-min Rain = 0
KJTS 160900Z 35002KT 19/15 A2986 RMK A01 T01890148  RH  081%=      5-min Rain = 0
KJTS 160905Z 29003KT 19/15 A2986 RMK A01 T01870148  RH  081%=      5-min Rain = 0
KJTS 160910Z 32005KT 19/15 A2986 RMK A01 T01850146  RH  082%=      5-min Rain = 0
KJTS 160915Z 02006KT 19/14 A2986 RMK A01 T01870144  RH  080%=      5-min Rain = 0
KJTS 160920Z 04005KT 19/14 A2986 RMK A01 T01940141  RH  075%=      5-min Rain = 0
KJTS 160925Z 35004KT 19/14 A2986 RMK A01 T01910143  RH  077%=      5-min Rain = 0
KJTS 160930Z 31004KT 19/14 A2986 RMK A01 T01860144  RH  080%=      5-min Rain = 0
KJTS 160935Z 35003KT 19/14 A2986 RMK A01 T01870141  RH  078%=      5-min Rain = 0
KJTS 160940Z 02004KT 19/14 A2986 RMK A01 T01910140  RH  075%=      5-min Rain = 0
KJTS 160945Z 35004KT 19/14 A2986 RMK A01 T01900141  RH  077%=      5-min Rain = 0
KJTS 160950Z 30004KT 19/14 A2987 RMK A01 T01850142  RH  079%=      5-min Rain = 0
KJTS 160955Z 30001KT 18/14 A2987 RMK A01 T01830143  RH  081%=      5-min Rain = 0
KJTS 161000Z 07002KT 18/15 A2987 RMK A01 T01770145  RH  085%=      5-min Rain = 0
KJTS 161005Z 04005KT 18/14 A2987 RMK A01 T01790144  RH  084%=      5-min Rain = 0
KJTS 161010Z 07007KT 19/14 A2987 RMK A01 T01850144  RH  080%=      5-min Rain = 0
KJTS 161015Z 09005G10KT 18/15 A2988 RMK A01 T01840147  RH  082%=      5-min Rain = 0
KJTS 161020Z 05004KT 19/15 A2988 RMK A01 T01850145  RH  081%=      5-min Rain = 0
KJTS 161025Z 05006KT 19/15 A2988 RMK A01 T01850145  RH  081%=      5-min Rain = 0
KJTS 161030Z 03004KT 18/15 A2988 RMK A01 T01840146  RH  082%=      5-min Rain = 0
KJTS 161035Z 04004KT 19/15 A2988 RMK A01 T01850148  RH  083%=      5-min Rain = 0
KJTS 161040Z 04004KT 18/15 A2988 RMK A01 T01840149  RH  084%=      5-min Rain = 0
KJTS 161045Z 03004KT 18/15 A2988 RMK A01 T01840151  RH  085%=      5-min Rain = 0
KJTS 161050Z 04004KT 19/15 A2988 RMK A01 T01850151  RH  084%=      5-min Rain = 0
KJTS 161055Z 03003KT 19/15 A2988 RMK A01 T01860152  RH  084%=      5-min Rain = 0
KJTS 161100Z 02003KT 19/15 A2988 RMK A01 T01870154  RH  085%=      5-min Rain = 0
KJTS 161105Z 04004KT 19/15 A2988 RMK A01 T01880154  RH  084%=      5-min Rain = 0
KJTS 161110Z 05003KT 19/15 A2988 RMK A01 T01880154  RH  085%=      5-min Rain = 0
KJTS 161115Z 07003KT 19/16 A2988 RMK A01 T01870155  RH  085%=      5-min Rain = 0
KJTS 161120Z 07004KT 19/16 A2988 RMK A01 T01870157  RH  086%=      5-min Rain = 0
KJTS 161125Z 07007KT 19/16 A2988 RMK A01 T01870156  RH  086%=      5-min Rain = 0
KJTS 161130Z 04006KT 19/15 A2988 RMK A01 T01880154  RH  085%=      5-min Rain = 0
KJTS 161135Z 01004KT 19/16 A2989 RMK A01 T01870157  RH  086%=      5-min Rain = 0
KJTS 161140Z 35005KT 19/16 A2989 RMK A01 T01860159  RH  088%=      5-min Rain = 0
KJTS 161145Z 34006KT 19/16 A299 RMK A01 T01860159  RH  088%=      5-min Rain = 0
KJTS 161150Z 36007KT 19/16 A299 RMK A01 T01850157  RH  088%=      5-min Rain = 0
KJTS 161155Z 01006KT 19/16 A299 RMK A01 T01860156  RH  087%=      5-min Rain = 0
KJTS 161200Z 01006KT 19/16 A299 RMK A01 T01860157  RH  087%=      5-min Rain = 0
KJTS 161205Z 00004KT 19/16 A299 RMK A01 T01860158  RH  088%=      5-min Rain = 0
KJTS 161210Z 01004KT 19/16 A299 RMK A01 T01860160  RH  089%=      5-min Rain = 0
KJTS 161215Z 02004KT 19/16 A299 RMK A01 T01890159  RH  086%=      5-min Rain = 0
KJTS 161220Z 01004KT 19/16 A299 RMK A01 T01920159  RH  085%=      5-min Rain = 0
KJTS 161225Z 02003KT 19/16 A299 RMK A01 T01940159  RH  084%=      5-min Rain = 0
KJTS 161230Z 05003KT 20/16 A299 RMK A01 T01970160  RH  083%=      5-min Rain = 0
KJTS 161235Z 08004KT 20/16 A299 RMK A01 T01970161  RH  084%=      5-min Rain = 0
KJTS 161240Z 08005KT 20/16 A2991 RMK A01 T02000163  RH  083%=      5-min Rain = 0
KJTS 161245Z 07005KT 20/16 A2991 RMK A01 T02010163  RH  082%=      5-min Rain = 0
KJTS 161250Z 04003KT 20/16 A2991 RMK A01 T02040163  RH  081%=      5-min Rain = 0
KJTS 161255Z 02004KT 20/16 A2991 RMK A01 T02030161  RH  080%=      5-min Rain = 0
KJTS 161300Z 03003KT 20/16 A2991 RMK A01 T02020160  RH  081%=      5-min Rain = 0
KJTS 161305Z 03005KT 20/16 A2991 RMK A01 T02030159  RH  080%=      5-min Rain = 0
KJTS 161310Z 01005KT 21/16 A2992 RMK A01 T02060161  RH  079%=      5-min Rain = 0
KJTS 161315Z 02005KT 21/16 A2992 RMK A01 T02070161  RH  078%=      5-min Rain = 0
KJTS 161320Z 03006KT 21/16 A2992 RMK A01 T02070157  RH  077%=      5-min Rain = 0
KJTS 161325Z 02006KT 21/16 A2992 RMK A01 T02100159  RH  076%=      5-min Rain = 0
KJTS 161330Z 02005KT 21/16 A2992 RMK A01 T02110159  RH  076%=      5-min Rain = 0
KJTS 161335Z 02006KT 21/16 A2992 RMK A01 T02090159  RH  077%=      5-min Rain = 0
KJTS 161340Z 01007KT 21/16 A2992 RMK A01 T02070159  RH  077%=      5-min Rain = 0
KJTS 161345Z 02004KT 21/16 A2992 RMK A01 T02080160  RH  077%=      5-min Rain = 0
KJTS 161350Z 03007KT 21/16 A2992 RMK A01 T02100155  RH  075%=      5-min Rain = 0
KJTS 161355Z 03004G9KT 21/16 A2992 RMK A01 T02100156  RH  075%=      5-min Rain = 0
KJTS 161400Z 03005KT 21/16 A2992 RMK A01 T02110156  RH  074%=      5-min Rain = 0
KJTS 161405Z 05005KT 21/16 A2992 RMK A01 T02110156  RH  074%=      5-min Rain = 0
KJTS 161410Z 06005KT 21/16 A2991 RMK A01 T02130158  RH  074%=      5-min Rain = 0
KJTS 161415Z 07006KT 22/16 A2991 RMK A01 T02170161  RH  074%=      5-min Rain = 0
KJTS 161420Z 06006KT 22/16 A2991 RMK A01 T02190162  RH  074%=      5-min Rain = 0
KJTS 161425Z 07006KT 22/16 A2991 RMK A01 T02200162  RH  073%=      5-min Rain = 0
KJTS 161430Z 08007KT 22/16 A2991 RMK A01 T02200164  RH  074%=      5-min Rain = 0
KJTS 161435Z 08006KT 22/17 A2991 RMK A01 T02210166  RH  075%=      5-min Rain = 0
KJTS 161440Z 09007KT 22/17 A2991 RMK A01 T02240168  RH  074%=      5-min Rain = 0
KJTS 161445Z 08006KT 23/17 A2991 RMK A01 T02280170  RH  073%=      5-min Rain = 0
KJTS 161450Z 08006KT 23/17 A2991 RMK A01 T02290171  RH  073%=      5-min Rain = 0
KJTS 161455Z 07006KT 23/17 A2991 RMK A01 T02290172  RH  074%=      5-min Rain = 0
KJTS 161500Z 05005KT 23/17 A2992 RMK A01 T02290171  RH  074%=      5-min Rain = 0
KJTS 161505Z 06006KT 23/17 A2992 RMK A01 T02290172  RH  074%=      5-min Rain = 0
KJTS 161510Z 04006KT 23/17 A2992 RMK A01 T02280170  RH  073%=      5-min Rain = 0
KJTS 161515Z 04006KT 23/17 A2992 RMK A01 T02300173  RH  074%=      5-min Rain = 0
KJTS 161520Z 04006KT 23/17 A2992 RMK A01 T02310171  RH  072%=      5-min Rain = 0
KJTS 161525Z 03006KT 23/17 A2992 RMK A01 T02310172  RH  073%=      5-min Rain = 0
KJTS 161530Z 02006KT 23/17 A2992 RMK A01 T02340172  RH  072%=      5-min Rain = 0
KJTS 161535Z 03007KT 23/17 A2992 RMK A01 T02330170  RH  071%=      5-min Rain = 0
KJTS 161540Z 03008KT 23/17 A2992 RMK A01 T02320170  RH  072%=      5-min Rain = 0
KJTS 161545Z 04008G13KT 23/17 A2993 RMK A01 T02320168  RH  071%=      5-min Rain = 0
KJTS 161550Z 03007KT 23/17 A2993 RMK A01 T02320169  RH  071%=      5-min Rain = 0
KJTS 161555Z 03008KT 23/17 A2993 RMK A01 T02320169  RH  071%=      5-min Rain = 0
KJTS 161600Z 03008G13KT 23/17 A2993 RMK A01 T02320167  RH  071%=      5-min Rain = 0
KJTS 161605Z 03008KT 23/17 A2993 RMK A01 T02320168  RH  071%=      5-min Rain = 0
KJTS 161610Z 03009G14KT 23/17 A2993 RMK A01 T02330169  RH  071%=      5-min Rain = 0
KJTS 161615Z 03010KT 23/17 A2994 RMK A01 T02320167  RH  070%=      5-min Rain = 0
KJTS 161620Z 04010KT 23/17 A2994 RMK A01 T02320166  RH  069%=      5-min Rain = 0
KJTS 161625Z 03009G14KT 23/16 A2994 RMK A01 T02340164  RH  068%=      5-min Rain = 0
KJTS 161630Z 02009KT 23/17 A2994 RMK A01 T02340165  RH  068%=      5-min Rain = 0
KJTS 161635Z 03010G15KT 23/16 A2994 RMK A01 T02340164  RH  068%=      5-min Rain = 0
KJTS 161640Z 02008G14KT 24/17 A2993 RMK A01 T02350167  RH  069%=      5-min Rain = 0
KJTS 161645Z 02010G15KT 24/17 A2993 RMK A01 T02350165  RH  068%=      5-min Rain = 0
KJTS 161650Z 03010G16KT 24/17 A2994 RMK A01 T02350165  RH  068%=      5-min Rain = 0
KJTS 161655Z 04009G14KT 24/17 A2994 RMK A01 T02370165  RH  067%=      5-min Rain = 0
KJTS 161700Z 05010G15KT 24/16 A2994 RMK A01 T02380164  RH  067%=      5-min Rain = 0
KJTS 161705Z 04011KT 24/16 A2994 RMK A01 T02370163  RH  066%=      5-min Rain = 0
KJTS 161710Z 04010KT 24/16 A2994 RMK A01 T02380160  RH  065%=      5-min Rain = 0
KJTS 161715Z 03010G16KT 24/16 A2994 RMK A01 T02380161  RH  065%=      5-min Rain = 0
KJTS 161720Z 05010KT 24/16 A2994 RMK A01 T02400164  RH  066%=      5-min Rain = 0
KJTS 161725Z 05009G14KT 24/16 A2994 RMK A01 T02380163  RH  066%=      5-min Rain = 0
KJTS 161730Z 04009KT 24/16 A2994 RMK A01 T02380162  RH  066%=      5-min Rain = 0
KJTS 161735Z 05008KT 24/17 A2994 RMK A01 T02390165  RH  066%=      5-min Rain = 0
KJTS 161740Z 04010KT 24/16 A2994 RMK A01 T02410162  RH  064%=      5-min Rain = 0
KJTS 161745Z 04009KT 24/16 A2994 RMK A01 T02420161  RH  063%=      5-min Rain = 0
KJTS 161750Z 03009KT 25/16 A2993 RMK A01 T02460160  RH  062%=      5-min Rain = 0
KJTS 161755Z 02010G15KT 25/16 A2993 RMK A01 T02460161  RH  062%=      5-min Rain = 0
KJTS 161800Z 05010KT 25/16 A2993 RMK A01 T02490161  RH  061%=      5-min Rain = 0
KJTS 161805Z 05009KT 25/16 A2993 RMK A01 T02470164  RH  063%=      5-min Rain = 0
KJTS 161810Z 02006KT 25/17 A2993 RMK A01 T02520165  RH  062%=      5-min Rain = 0
KJTS 161815Z 00010G16KT 26/17 A2993 RMK A01 T02560166  RH  061%=      5-min Rain = 0
KJTS 161820Z 02009KT 25/16 A2993 RMK A01 T02540163  RH  060%=      5-min Rain = 0
KJTS 161825Z 00009KT 26/17 A2992 RMK A01 T02570166  RH  060%=      5-min Rain = 0
KJTS 161830Z 02008KT 26/17 A2992 RMK A01 T02610167  RH  059%=      5-min Rain = 0
KJTS 161835Z 02005KT 26/17 A2992 RMK A01 T02640168  RH  058%=      5-min Rain = 0
KJTS 161840Z 02006KT 27/17 A2992 RMK A01 T02650167  RH  058%=      5-min Rain = 0
KJTS 161845Z 02006G11KT 26/17 A2992 RMK A01 T02610165  RH  058%=      5-min Rain = 0
KJTS 161850Z 04007KT 26/17 A2991 RMK A01 T02630165  RH  058%=      5-min Rain = 0
KJTS 161855Z 03006KT 27/17 A2991 RMK A01 T02650165  RH  057%=      5-min Rain = 0
KJTS 161900Z 02008G13KT 26/16 A2991 RMK A01 T02640164  RH  057%=      5-min Rain = 0
KJTS 161905Z 01007KT 27/17 A299 RMK A01 T02680168  RH  057%=      5-min Rain = 0
KJTS 161910Z 01007G12KT 27/17 A2991 RMK A01 T02690167  RH  056%=      5-min Rain = 0
KJTS 161915Z 02008G14KT 27/17 A299 RMK A01 T02680165  RH  056%=      5-min Rain = 0
KJTS 161920Z 02009G15KT 27/17 A299 RMK A01 T02680167  RH  056%=      5-min Rain = 0
KJTS 161925Z 35010KT 27/17 A299 RMK A01 T02670168  RH  057%=      5-min Rain = 0
KJTS 161930Z 03009KT 27/17 A2989 RMK A01 T02690170  RH  057%=      5-min Rain = 0
KJTS 161935Z 02008G14KT 27/17 A2989 RMK A01 T02680168  RH  057%=      5-min Rain = 0
KJTS 161940Z 03010KT 27/17 A2989 RMK A01 T02670169  RH  058%=      5-min Rain = 0
KJTS 161945Z 04009KT 27/17 A2989 RMK A01 T02650169  RH  058%=      5-min Rain = 0
KJTS 161950Z 03008G15KT 27/17 A2989 RMK A01 T02670169  RH  058%=      5-min Rain = 0
KJTS 161955Z 03009G15KT 27/17 A2989 RMK A01 T02660169  RH  058%=      5-min Rain = 0
KJTS 162000Z 02009G14KT 27/17 A2989 RMK A01 T02680169  RH  057%=      5-min Rain = 0
KJTS 162005Z 03010KT 27/17 A2989 RMK A01 T02680170  RH  057%=      5-min Rain = 0
KJTS 162010Z 02009KT 27/17 A2989 RMK A01 T02680170  RH  058%=      5-min Rain = 0
KJTS 162015Z 02010G17KT 27/17 A2989 RMK A01 T02690170  RH  058%=      5-min Rain = 0
KJTS 162020Z 01010G15KT 27/17 A2989 RMK A01 T02690170  RH  057%=      5-min Rain = 0
KJTS 162025Z 02010KT 27/17 A2989 RMK A01 T02680168  RH  057%=      5-min Rain = 0
KJTS 162030Z 01009G14KT 27/17 A2989 RMK A01 T02700170  RH  057%=      5-min Rain = 0
KJTS 162035Z 03007KT 27/17 A2989 RMK A01 T02690171  RH  057%=      5-min Rain = 0
KJTS 162040Z 02007KT 27/17 A2989 RMK A01 T02740173  RH  057%=      5-min Rain = 0
KJTS 162045Z 06006KT 27/17 A2989 RMK A01 T02710170  RH  057%=      5-min Rain = 0
KJTS 162050Z 06007KT 27/17 A2989 RMK A01 T02700170  RH  057%=      5-min Rain = 0
KJTS 162055Z 06006G11KT 27/17 A2989 RMK A01 T02720168  RH  056%=      5-min Rain = 0
KJTS 162100Z 06005KT 27/17 A2989 RMK A01 T02720169  RH  056%=      5-min Rain = 0
KJTS 162105Z 06005KT 27/17 A2989 RMK A01 T02740170  RH  056%=      5-min Rain = 0
KJTS 162110Z 03004KT 28/17 A2989 RMK A01 T02780174  RH  056%=      5-min Rain = 0
KJTS 162115Z 06006KT 28/17 A2989 RMK A01 T02780171  RH  055%=      5-min Rain = 0
KJTS 162120Z 08004KT 28/17 A2988 RMK A01 T02800173  RH  055%=      5-min Rain = 0
KJTS 162125Z 06005KT 28/17 A2988 RMK A01 T02790170  RH  054%=      5-min Rain = 0
KJTS 162130Z 05006KT 28/17 A2988 RMK A01 T02790171  RH  055%=      5-min Rain = 0
KJTS 162135Z 06005G10KT 28/17 A2988 RMK A01 T02790171  RH  054%=      5-min Rain = 0
KJTS 162140Z 06006KT 28/18 A2988 RMK A01 T02840177  RH  055%=      5-min Rain = 0
KJTS 162145Z 06006G11KT 28/17 A2987 RMK A01 T02830174  RH  054%=      5-min Rain = 0
KJTS 162150Z 05006KT 28/17 A2987 RMK A01 T02820173  RH  054%=      5-min Rain = 0
KJTS 162155Z 03006KT 28/17 A2987 RMK A01 T02830174  RH  054%=      5-min Rain = 0
KJTS 162200Z 02005KT 28/17 A2987 RMK A01 T02820174  RH  055%=      5-min Rain = 0
KJTS 162205Z 06005KT 28/18 A2987 RMK A01 T02840175  RH  054%=      5-min Rain = 0
KJTS 162210Z 05005G10KT 28/18 A2987 RMK A01 T02840175  RH  054%=      5-min Rain = 0
KJTS 162215Z 05007KT 29/18 A2986 RMK A01 T02850175  RH  054%=      5-min Rain = 0
KJTS 162220Z 03006KT 29/18 A2986 RMK A01 T02860175  RH  054%=      5-min Rain = 0
KJTS 162225Z 06007G12KT 29/18 A2986 RMK A01 T02880177  RH  054%=      5-min Rain = 0
KJTS 162230Z 06008G14KT 29/18 A2986 RMK A01 T02890176  RH  053%=      5-min Rain = 0
KJTS 162235Z 04007G12KT 29/18 A2986 RMK A01 T02880176  RH  054%=      5-min Rain = 0
KJTS 162240Z 04008KT 29/18 A2986 RMK A01 T02880175  RH  053%=      5-min Rain = 0
KJTS 162245Z 04007KT 28/17 A2986 RMK A01 T02830169  RH  053%=      5-min Rain = 0
KJTS 162250Z 05009G14KT 29/17 A2986 RMK A01 T02850174  RH  053%=      5-min Rain = 0
KJTS 162255Z 05008KT 29/17 A2986 RMK A01 T02850174  RH  054%=      5-min Rain = 0
KJTS 162300Z 04009KT 29/17 A2986 RMK A01 T02850173  RH  053%=      5-min Rain = 0
KJTS 162305Z 04009G14KT 29/17 A2986 RMK A01 T02850171  RH  053%=      5-min Rain = 0
KJTS 162310Z 04010G15KT 28/17 A2986 RMK A01 T02820171  RH  053%=      5-min Rain = 0
KJTS 162315Z 04010KT 28/17 A2986 RMK A01 T02800169  RH  054%=      5-min Rain = 0
KJTS 162320Z 04010KT 28/17 A2986 RMK A01 T02800171  RH  054%=      5-min Rain = 0
KJTS 162325Z 05010KT 28/17 A2986 RMK A01 T02800170  RH  054%=      5-min Rain = 0
KJTS 162330Z 05009KT 28/17 A2986 RMK A01 T02800170  RH  054%=      5-min Rain = 0
KJTS 162335Z 05009G14KT 28/17 A2986 RMK A01 T02790169  RH  054%=      5-min Rain = 0
KJTS 162340Z 05009KT 28/17 A2986 RMK A01 T02790170  RH  054%=      5-min Rain = 0
KJTS 162345Z 05008KT 28/17 A2986 RMK A01 T02780170  RH  054%=      5-min Rain = 0
KJTS 162350Z 05008G13KT 28/17 A2986 RMK A01 T02790172  RH  055%=      5-min Rain = 0
KJTS 162355Z 03008KT 28/17 A2987 RMK A01 T02780169  RH  054%=      5-min Rain = 0
KJTS 170000Z 04009G14KT 28/17 A2987 RMK A01 T02750168  RH  055%=      5-min Rain = 0
KJTS 170005Z 06009KT 28/17 A2987 RMK A01 T02750170  RH  055%=      5-min Rain = 0
KJTS 170010Z 05008KT 27/17 A2987 RMK A01 T02730169  RH  056%=      5-min Rain = 0
KJTS 170015Z 04007KT 27/17 A2987 RMK A01 T02740168  RH  055%=      5-min Rain = 0
KJTS 170020Z 05008KT 27/17 A2987 RMK A01 T02730169  RH  056%=      5-min Rain = 0
KJTS 170025Z 05008KT 27/17 A2987 RMK A01 T02720168  RH  056%=      5-min Rain = 0
KJTS 170030Z 04008KT 27/17 A2987 RMK A01 T02710168  RH  056%=      5-min Rain = 0
KJTS 170035Z 05006KT 27/17 A2987 RMK A01 T02710170  RH  057%=      5-min Rain = 0
KJTS 170040Z 06007KT 27/17 A2987 RMK A01 T02700168  RH  056%=      5-min Rain = 0
KJTS 170045Z 04007KT 27/17 A2987 RMK A01 T02690167  RH  056%=      5-min Rain = 0
KJTS 170050Z 04007KT 27/17 A2987 RMK A01 T02680167  RH  057%=      5-min Rain = 0
KJTS 170055Z 03006KT 27/17 A2987 RMK A01 T02670167  RH  057%=      5-min Rain = 0
KJTS 170100Z 04007KT 27/17 A2987 RMK A01 T02660168  RH  058%=      5-min Rain = 0
KJTS 170105Z 05007KT 26/17 A2987 RMK A01 T02640166  RH  058%=      5-min Rain = 0
KJTS 170110Z 05006KT 26/17 A2987 RMK A01 T02620165  RH  058%=      5-min Rain = 0
KJTS 170115Z 05006KT 26/16 A2988 RMK A01 T02590163  RH  058%=      5-min Rain = 0
KJTS 170120Z 05006KT 26/16 A2988 RMK A01 T02560162  RH  059%=      5-min Rain = 0
KJTS 170125Z 05005KT 25/16 A2988 RMK A01 T02540163  RH  060%=      5-min Rain = 0
KJTS 170130Z 04005KT 25/16 A2988 RMK A01 T02520163  RH  061%=      5-min Rain = 0
KJTS 170135Z 04005KT 25/16 A2988 RMK A01 T02510164  RH  061%=      5-min Rain = 0
KJTS 170140Z 04005KT 25/17 A2988 RMK A01 T02500165  RH  062%=      5-min Rain = 0
KJTS 170145Z 03005KT 25/17 A2989 RMK A01 T02480166  RH  063%=      5-min Rain = 0
KJTS 170150Z 03005KT 25/17 A2988 RMK A01 T02460165  RH  064%=      5-min Rain = 0
KJTS 170155Z 03004KT 24/17 A2988 RMK A01 T02440166  RH  065%=      5-min Rain = 0
KJTS 170200Z 02004KT 24/17 A2988 RMK A01 T02420167  RH  066%=      5-min Rain = 0
KJTS 170205Z 01004KT 24/17 A2989 RMK A01 T02390168  RH  068%=      5-min Rain = 0
KJTS 170210Z 01004KT 23/17 A2989 RMK A01 T02330169  RH  071%=      5-min Rain = 0
KJTS 170215Z 01004KT 23/17 A2989 RMK A01 T02320171  RH  072%=      5-min Rain = 0
KJTS 170220Z 01005KT 23/17 A2989 RMK A01 T02290172  RH  074%=      5-min Rain = 0
KJTS 170225Z 02004KT 23/17 A2989 RMK A01 T02280172  RH  074%=      5-min Rain = 0
KJTS 170230Z 02005KT 23/17 A2989 RMK A01 T02300171  RH  073%=      5-min Rain = 0
KJTS 170235Z 02004KT 23/17 A2989 RMK A01 T02300170  RH  072%=      5-min Rain = 0
KJTS 170240Z 03004KT 23/17 A299 RMK A01 T02300169  RH  072%=      5-min Rain = 0
KJTS 170245Z 03005KT 23/17 A299 RMK A01 T02280168  RH  073%=      5-min Rain = 0
KJTS 170250Z 03005KT 23/17 A299 RMK A01 T02270168  RH  073%=      5-min Rain = 0
KJTS 170255Z 04005KT 23/17 A299 RMK A01 T02270168  RH  073%=      5-min Rain = 0
KJTS 170300Z 04005KT 23/17 A299 RMK A01 T02250167  RH  073%=      5-min Rain = 0
KJTS 170305Z 06006KT 22/17 A299 RMK A01 T02190168  RH  076%=      5-min Rain = 0
KJTS 170310Z 06005KT 22/17 A2991 RMK A01 T02150168  RH  078%=      5-min Rain = 0
KJTS 170315Z 06005KT 21/17 A2991 RMK A01 T02130168  RH  080%=      5-min Rain = 0
KJTS 170320Z 07005KT 21/17 A2991 RMK A01 T02110169  RH  081%=      5-min Rain = 0
KJTS 170325Z 08005KT 21/17 A2992 RMK A01 T02090170  RH  083%=      5-min Rain = 0
KJTS 170330Z 07006KT 21/17 A2992 RMK A01 T02090171  RH  083%=      5-min Rain = 0
KJTS 170335Z 06006KT 21/17 A2992 RMK A01 T02100170  RH  082%=      5-min Rain = 0
KJTS 170340Z 06005KT 21/17 A2992 RMK A01 T02090170  RH  082%=      5-min Rain = 0
KJTS 170345Z 06005KT 21/17 A2992 RMK A01 T02080170  RH  083%=      5-min Rain = 0
KJTS 170350Z 06005KT 21/17 A2993 RMK A01 T02070169  RH  083%=      5-min Rain = 0
KJTS 170355Z 06005KT 21/17 A2993 RMK A01 T02050169  RH  084%=      5-min Rain = 0
KJTS 170400Z 06005KT 21/17 A2993 RMK A01 T02050169  RH  084%=      5-min Rain = 0
KJTS 170405Z 06004KT 21/17 A2993 RMK A01 T02050169  RH  084%=      5-min Rain = 0
KJTS 170410Z 07004KT 20/17 A2993 RMK A01 T02020169  RH  085%=      5-min Rain = 0
KJTS 170415Z 07005KT 20/17 A2994 RMK A01 T02010169  RH  086%=      5-min Rain = 0
KJTS 170420Z 07005KT 20/17 A2994 RMK A01 T02000169  RH  086%=      5-min Rain = 0
KJTS 170425Z 07005KT 20/17 A2994 RMK A01 T02020169  RH  086%=      5-min Rain = 0
KJTS 170430Z 07004KT 20/17 A2994 RMK A01 T02020169  RH  086%=      5-min Rain = 0
KJTS 170435Z 06004KT 20/17 A2994 RMK A01 T02030169  RH  085%=      5-min Rain = 0
KJTS 170440Z 05004KT 21/17 A2994 RMK A01 T02060169  RH  084%=      5-min Rain = 0
KJTS 170445Z 05004KT 21/17 A2995 RMK A01 T02080169  RH  082%=      5-min Rain = 0
KJTS 170450Z 06004KT 20/17 A2995 RMK A01 T02040167  RH  083%=      5-min Rain = 0
KJTS 170455Z 06004KT 20/17 A2995 RMK A01 T02000167  RH  085%=      5-min Rain = 0

Page generated in 0.0091 seconds.